createdAt,value
2018-03-01T00:01:31.195Z,15.00
2018-03-01T00:04:02.625Z,19.50
2018-03-01T00:06:40.483Z,22.50
2018-03-01T00:09:12.669Z,20.50
2018-03-01T00:11:44.224Z,19.50
2018-03-01T00:14:15.664Z,20.50
2018-03-01T00:16:47.747Z,16.00
2018-03-01T00:19:19.585Z,18.00
2018-03-01T00:21:54.167Z,19.50
2018-03-01T00:24:26.755Z,23.00
2018-03-01T00:26:59.108Z,22.50
2018-03-01T00:29:31.691Z,18.00
2018-03-01T00:32:05.514Z,23.50
2018-03-01T00:34:37.859Z,19.00
2018-03-01T00:37:11.048Z,23.00
2018-03-01T00:39:47.345Z,21.50
2018-03-01T00:42:25.550Z,26.00
2018-03-01T00:44:57.716Z,19.50
2018-03-01T00:47:31.054Z,16.50
2018-03-01T00:50:05.639Z,22.50
2018-03-01T00:52:37.455Z,23.00
2018-03-01T00:55:09.789Z,20.50
2018-03-01T00:57:44.481Z,18.50
2018-03-01T01:00:20.057Z,19.00
2018-03-01T01:02:51.982Z,19.50
2018-03-01T01:05:28.412Z,21.50
2018-03-01T01:10:56.401Z,19.00
2018-03-01T01:13:30.071Z,28.00
2018-03-01T01:16:02.773Z,18.00
2018-03-01T01:18:35.710Z,17.00
2018-03-01T01:21:11.151Z,20.00
2018-03-01T01:23:51.410Z,21.00
2018-03-01T01:26:25.798Z,19.00
2018-03-01T01:28:58.071Z,21.00
2018-03-01T01:31:29.313Z,19.50
2018-03-01T01:34:01.514Z,17.00
2018-03-01T01:36:33.440Z,17.00
2018-03-01T01:39:06.691Z,23.00
2018-03-01T01:41:41.636Z,19.00
2018-03-01T01:44:22.029Z,24.00
2018-03-01T01:46:56.008Z,19.00
2018-03-01T01:49:27.053Z,16.50
2018-03-01T01:51:59.368Z,20.00
2018-03-01T01:54:31.179Z,21.00
2018-03-01T01:57:03.135Z,13.00
2018-03-01T01:59:37.951Z,18.50
2018-03-01T02:02:11.495Z,18.00
2018-03-01T02:04:44.482Z,18.00
2018-03-01T02:07:17.475Z,15.50
2018-03-01T02:09:50.388Z,25.50
2018-03-01T02:12:37.852Z,18.00
2018-03-01T02:15:15.871Z,19.00
2018-03-01T02:18:00.004Z,17.50
2018-03-01T02:23:39.263Z,18.00
2018-03-01T02:29:47.441Z,17.00
2018-03-01T02:32:20.093Z,19.00
2018-03-01T02:41:50.124Z,17.00
2018-03-01T02:44:50.014Z,24.50
2018-03-01T02:47:25.766Z,14.00
2018-03-01T02:49:57.839Z,18.00
2018-03-01T02:52:30.589Z,22.50
2018-03-01T02:55:02.961Z,23.00
2018-03-01T02:57:36.519Z,17.00
2018-03-01T03:00:18.417Z,18.50
2018-03-01T03:02:50.463Z,20.50
2018-03-01T03:05:22.177Z,20.00
2018-03-01T03:07:55.650Z,16.00
2018-03-01T03:10:28.979Z,19.50
2018-03-01T03:13:00.415Z,19.50
2018-03-01T03:15:33.055Z,20.00
2018-03-01T03:18:05.483Z,13.00
2018-03-01T03:20:37.618Z,25.50
2018-03-01T03:23:10.176Z,25.00
2018-03-01T03:25:55.981Z,17.50
2018-03-01T03:28:27.001Z,18.50
2018-03-01T03:30:59.699Z,14.00
2018-03-01T03:33:32.512Z,13.50
2018-03-01T03:36:06.002Z,18.50
2018-03-01T03:38:37.435Z,15.50
2018-03-01T03:41:08.429Z,18.00
2018-03-01T03:43:40.830Z,21.50
2018-03-01T03:46:20.152Z,18.50
2018-03-01T03:48:52.455Z,17.00
2018-03-01T03:51:26.890Z,16.50
2018-03-01T03:53:58.095Z,16.50
2018-03-01T03:56:30.905Z,14.00
2018-03-01T03:59:02.813Z,20.00
2018-03-01T04:04:37.295Z,17.50
2018-03-01T04:09:45.807Z,15.00
2018-03-01T04:12:17.276Z,18.00
2018-03-01T04:14:55.875Z,15.00
2018-03-01T04:17:28.620Z,18.00
2018-03-01T04:20:00.147Z,19.00
2018-03-01T04:22:32.282Z,19.00
2018-03-01T04:25:03.494Z,17.50
2018-03-01T04:27:39.703Z,17.50
2018-03-01T04:30:15.555Z,17.00
2018-03-01T04:32:48.384Z,16.00
2018-03-01T04:35:25.769Z,18.00
2018-03-01T04:37:57.590Z,17.00
2018-03-01T04:40:29.070Z,17.00
2018-03-01T04:43:06.986Z,19.50
2018-03-01T04:45:38.457Z,16.50
2018-03-01T04:48:09.284Z,21.00
2018-03-01T04:50:40.404Z,20.50
2018-03-01T04:53:11.955Z,20.50
2018-03-01T04:55:43.439Z,19.00
2018-03-01T04:58:14.155Z,17.50
2018-03-01T05:00:45.622Z,18.00
2018-03-01T05:03:16.768Z,20.00
2018-03-01T05:05:49.271Z,15.50
2018-03-01T05:08:24.873Z,15.00
2018-03-01T05:10:59.385Z,16.50
2018-03-01T05:13:30.697Z,16.50
2018-03-01T05:16:02.704Z,18.00
2018-03-01T05:18:35.491Z,18.00
2018-03-01T05:21:11.987Z,16.50
2018-03-01T05:23:43.525Z,21.50
2018-03-01T05:26:14.637Z,16.50
2018-03-01T05:28:46.509Z,21.00
2018-03-01T05:31:18.774Z,21.00
2018-03-01T05:33:55.707Z,16.00
2018-03-01T05:36:27.213Z,22.50
2018-03-01T05:38:58.737Z,20.00
2018-03-01T05:41:29.534Z,17.00
2018-03-01T05:49:19.572Z,22.00
2018-03-01T05:51:51.567Z,17.00
2018-03-01T05:54:24.529Z,18.00
2018-03-01T05:56:57.437Z,17.50
2018-03-01T05:59:28.768Z,21.50
2018-03-01T06:02:00.580Z,18.00
2018-03-01T06:04:31.928Z,21.00
2018-03-01T06:07:13.863Z,17.00
2018-03-01T06:09:46.019Z,22.00
2018-03-01T06:12:17.885Z,17.00
2018-03-01T06:14:50.104Z,17.50
2018-03-01T06:17:23.034Z,18.00
2018-03-01T06:20:05.349Z,15.00
2018-03-01T06:22:38.078Z,22.00
2018-03-01T06:25:09.623Z,17.50
2018-03-01T06:28:21.769Z,17.00
2018-03-01T06:31:19.256Z,17.00
2018-03-01T06:33:53.502Z,14.50
2018-03-01T06:36:26.006Z,17.00
2018-03-01T06:38:59.304Z,18.00
2018-03-01T06:41:31.641Z,17.00
2018-03-01T06:44:19.106Z,18.00
2018-03-01T06:47:00.047Z,19.00
2018-03-01T06:49:34.572Z,18.50
2018-03-01T06:52:08.627Z,17.50
2018-03-01T06:54:49.024Z,20.00
2018-03-01T06:57:25.521Z,19.00
2018-03-01T07:00:18.252Z,16.50
2018-03-01T07:02:56.966Z,20.00
2018-03-01T07:05:30.168Z,20.00
2018-03-01T07:08:01.730Z,20.50
2018-03-01T07:10:34.108Z,25.50
2018-03-01T07:13:06.857Z,20.00
2018-03-01T07:15:40.228Z,15.00
2018-03-01T07:18:14.920Z,23.00
2018-03-01T07:23:25.464Z,19.00
2018-03-01T07:25:57.150Z,16.00
2018-03-01T07:31:30.995Z,18.00
2018-03-01T07:34:18.867Z,17.00
2018-03-01T07:37:11.216Z,20.00
2018-03-01T07:39:46.410Z,15.50
2018-03-01T07:42:17.784Z,17.50
2018-03-01T07:44:48.703Z,20.00
2018-03-01T07:47:25.717Z,17.00
2018-03-01T07:52:37.581Z,25.00
2018-03-01T07:55:10.252Z,21.00
2018-03-01T07:57:45.062Z,16.00
2018-03-01T08:00:25.031Z,16.00
2018-03-01T08:03:02.979Z,18.50
2018-03-01T08:05:37.664Z,17.00
2018-03-01T08:08:14.700Z,20.00
2018-03-01T08:10:48.964Z,21.00
2018-03-01T08:13:31.313Z,18.50
2018-03-01T08:16:17.164Z,17.00
2018-03-01T08:18:52.736Z,19.00
2018-03-01T08:21:28.084Z,27.50
2018-03-01T08:29:12.624Z,19.50
2018-03-01T08:31:55.667Z,20.00
2018-03-01T08:34:32.311Z,20.50
2018-03-01T08:37:06.692Z,16.00
2018-03-01T08:39:42.934Z,19.50
2018-03-01T08:42:15.439Z,17.50
2018-03-01T08:44:48.254Z,21.00
2018-03-01T08:47:21.985Z,20.50
2018-03-01T08:50:15.300Z,22.00
2018-03-01T08:52:51.428Z,15.00
2018-03-01T08:55:32.434Z,30.00
2018-03-01T08:58:25.806Z,16.00
2018-03-01T09:01:07.618Z,17.50
2018-03-01T09:03:47.061Z,21.50
2018-03-01T09:06:34.417Z,17.50
2018-03-01T09:09:31.772Z,36.50
2018-03-01T09:12:12.501Z,20.50
2018-03-01T09:14:47.953Z,16.00
2018-03-01T09:17:39.150Z,22.00
2018-03-01T09:20:23.998Z,15.50
2018-03-01T09:22:57.155Z,20.00
2018-03-01T09:25:31.022Z,18.50
2018-03-01T09:28:26.438Z,17.50
2018-03-01T09:31:02.759Z,14.50
2018-03-01T09:33:38.318Z,19.50
2018-03-01T09:36:11.720Z,18.50
2018-03-01T09:38:44.410Z,17.00
2018-03-01T09:41:18.601Z,15.00
2018-03-01T09:44:01.595Z,22.50
2018-03-01T09:46:39.402Z,13.00
2018-03-01T09:49:12.338Z,16.00
2018-03-01T09:51:46.706Z,16.00
2018-03-01T09:54:22.528Z,14.00
2018-03-01T09:56:55.569Z,18.25
2018-03-01T09:59:28.833Z,16.75
2018-03-01T10:04:51.400Z,13.75
2018-03-01T10:07:27.992Z,16.25
2018-03-01T10:10:13.101Z,16.75
2018-03-01T10:12:48.468Z,14.25
2018-03-01T10:15:33.357Z,15.00
2018-03-01T10:18:10.418Z,15.00
2018-03-01T10:20:45.784Z,9.50
2018-03-01T10:23:20.178Z,14.00
2018-03-01T10:25:52.059Z,13.25
2018-03-01T10:28:27.055Z,16.25
2018-03-01T10:31:12.381Z,12.75
2018-03-01T10:36:42.360Z,15.25
2018-03-01T10:39:16.248Z,17.50
2018-03-01T10:41:48.708Z,10.25
2018-03-01T10:44:20.427Z,13.25
2018-03-01T10:46:55.332Z,14.00
2018-03-01T10:49:28.326Z,14.00
2018-03-01T10:52:20.961Z,17.75
2018-03-01T10:55:08.488Z,14.00
2018-03-01T10:57:43.523Z,18.00
2018-03-01T11:00:25.081Z,16.00
2018-03-01T11:03:12.540Z,13.00
2018-03-01T11:05:44.478Z,12.00
2018-03-01T11:08:15.492Z,14.00
2018-03-01T11:10:47.996Z,20.25
2018-03-01T11:13:26.753Z,16.50
2018-03-01T11:16:00.178Z,12.75
2018-03-01T11:18:33.683Z,17.75
2018-03-01T11:21:26.657Z,13.75
2018-03-01T11:23:57.750Z,13.00
2018-03-01T11:26:29.558Z,16.25
2018-03-01T11:29:05.461Z,16.25
2018-03-01T11:31:47.607Z,12.75
2018-03-01T11:34:26.039Z,15.00
2018-03-01T11:39:44.334Z,14.00
2018-03-01T11:42:16.776Z,15.00
2018-03-01T11:44:48.142Z,15.75
2018-03-01T11:47:21.990Z,19.25
2018-03-01T11:49:54.186Z,13.50
2018-03-01T11:52:25.766Z,13.50
2018-03-01T11:55:00.946Z,14.75
2018-03-01T11:57:32.221Z,13.00
2018-03-01T12:00:09.484Z,18.00
2018-03-01T12:05:25.903Z,13.75
2018-03-01T12:07:59.177Z,15.75
2018-03-01T12:10:30.844Z,15.00
2018-03-01T12:13:07.416Z,12.00
2018-03-01T12:15:40.493Z,12.50
2018-03-01T12:18:13.293Z,18.75
2018-03-01T12:20:44.592Z,15.75
2018-03-01T12:23:24.635Z,13.50
2018-03-01T12:25:58.198Z,17.00
2018-03-01T12:28:29.389Z,18.00
2018-03-01T12:31:01.239Z,14.25
2018-03-01T12:33:32.336Z,17.25
2018-03-01T12:38:44.239Z,12.75
2018-03-01T12:41:21.264Z,14.75
2018-03-01T12:43:52.792Z,15.75
2018-03-01T12:46:23.935Z,14.25
2018-03-01T12:49:02.425Z,13.25
2018-03-01T12:51:35.250Z,13.50
2018-03-01T12:54:08.660Z,14.00
2018-03-01T12:56:41.949Z,15.00
2018-03-01T12:59:14.273Z,11.25
2018-03-01T13:01:47.072Z,15.00
2018-03-01T13:04:20.491Z,15.00
2018-03-01T13:06:52.466Z,15.00
2018-03-01T13:09:23.905Z,13.00
2018-03-01T13:11:54.890Z,14.75
2018-03-01T13:14:26.022Z,13.75
2018-03-01T13:16:57.355Z,15.75
2018-03-01T13:19:28.458Z,15.25
2018-03-01T13:22:06.204Z,14.75
2018-03-01T13:24:38.054Z,15.50
2018-03-01T13:27:11.247Z,18.00
2018-03-01T13:29:43.301Z,15.75
2018-03-01T13:32:15.599Z,20.25
2018-03-01T13:37:30.718Z,14.25
2018-03-01T13:40:04.085Z,15.25
2018-03-01T13:42:39.768Z,17.50
2018-03-01T13:45:22.187Z,21.25
2018-03-01T13:48:00.121Z,15.25
2018-03-01T13:50:32.823Z,14.75
2018-03-01T13:53:07.450Z,17.00
2018-03-01T13:55:44.228Z,18.25
2018-03-01T13:58:16.039Z,17.75
2018-03-01T14:00:47.492Z,12.00
2018-03-01T14:03:19.798Z,19.25
2018-03-01T14:05:51.613Z,15.00
2018-03-01T14:08:23.364Z,18.25
2018-03-01T14:10:54.945Z,14.25
2018-03-01T14:13:29.405Z,16.00
2018-03-01T14:16:00.955Z,14.00
2018-03-01T14:18:34.243Z,14.00
2018-03-01T14:21:08.158Z,12.00
2018-03-01T14:23:39.790Z,18.25
2018-03-01T14:26:11.298Z,12.00
2018-03-01T14:28:42.570Z,15.00
2018-03-01T14:31:14.216Z,15.00
2018-03-01T14:33:46.702Z,19.50
2018-03-01T14:36:20.231Z,16.00
2018-03-01T14:38:51.572Z,14.00
2018-03-01T14:41:30.940Z,15.50
2018-03-01T14:44:04.452Z,13.00
2018-03-01T14:46:36.723Z,14.00
2018-03-01T14:49:07.754Z,14.50
2018-03-01T14:51:38.555Z,16.00
2018-03-01T14:54:10.996Z,14.50
2018-03-01T14:57:01.932Z,19.75
2018-03-01T14:59:50.665Z,14.00
2018-03-01T15:02:46.390Z,14.50
2018-03-01T15:07:59.436Z,14.00
2018-03-01T15:10:30.655Z,14.00
2018-03-01T15:13:03.472Z,17.75
2018-03-01T15:15:43.395Z,14.00
2018-03-01T15:18:14.579Z,17.75
2018-03-01T15:20:47.070Z,17.00
2018-03-01T15:23:17.869Z,16.25
2018-03-01T15:25:49.025Z,15.50
2018-03-01T15:28:20.236Z,17.00
2018-03-01T15:30:51.298Z,13.50
2018-03-01T15:33:22.217Z,24.75
2018-03-01T15:36:22.987Z,15.75
2018-03-01T15:38:55.889Z,18.25
2018-03-01T15:41:39.222Z,20.00
2018-03-01T15:44:11.878Z,13.75
2018-03-01T15:46:43.804Z,14.75
2018-03-01T15:49:14.813Z,15.50
2018-03-01T15:51:46.682Z,15.25
2018-03-01T15:54:18.199Z,17.50
2018-03-01T15:56:49.675Z,15.75
2018-03-01T15:59:21.055Z,17.50
2018-03-01T16:01:56.957Z,17.50
2018-03-01T16:04:40.055Z,17.75
2018-03-01T16:07:12.178Z,15.75
2018-03-01T16:09:43.620Z,15.25
2018-03-01T16:12:14.401Z,19.25
2018-03-01T16:14:46.042Z,16.25
2018-03-01T16:17:17.397Z,21.75
2018-03-01T16:19:48.643Z,15.75
2018-03-01T16:22:20.397Z,18.75
2018-03-01T16:27:51.478Z,17.75
2018-03-01T16:30:23.931Z,24.25
2018-03-01T16:32:54.825Z,18.50
2018-03-01T16:40:57.981Z,17.00
2018-03-01T16:43:28.612Z,18.50
2018-03-01T16:46:00.623Z,15.75
2018-03-01T16:48:44.582Z,17.00
2018-03-01T16:51:18.211Z,18.00
2018-03-01T16:53:49.008Z,16.50
2018-03-01T16:56:20.454Z,17.00
2018-03-01T16:58:52.054Z,22.75
2018-03-01T17:01:33.826Z,18.00
2018-03-01T17:04:16.211Z,18.75
2018-03-01T17:06:47.367Z,19.50
2018-03-01T17:09:19.990Z,18.00
2018-03-01T17:12:05.795Z,20.50
2018-03-01T17:14:38.048Z,20.00
2018-03-01T17:17:09.316Z,22.50
2018-03-01T17:19:51.175Z,19.50
2018-03-01T17:22:22.546Z,19.00
2018-03-01T17:24:53.858Z,17.00
2018-03-01T17:27:26.066Z,19.00
2018-03-01T17:30:04.384Z,19.00
2018-03-01T17:32:47.237Z,19.50
2018-03-01T17:35:18.521Z,22.25
2018-03-01T17:37:49.906Z,27.25
2018-03-01T17:40:21.072Z,22.25
2018-03-01T17:42:52.392Z,20.25
2018-03-01T17:45:24.687Z,19.25
2018-03-01T17:47:56.712Z,21.25
2018-03-01T17:50:27.608Z,23.25
2018-03-01T17:52:59.550Z,17.75
2018-03-01T17:58:08.262Z,19.25
2018-03-01T18:00:51.612Z,23.75
2018-03-01T18:03:43.399Z,26.25
2018-03-01T18:06:14.915Z,23.00
2018-03-01T18:08:45.741Z,25.25
2018-03-01T18:11:16.829Z,26.25
2018-03-01T18:13:47.515Z,27.75
2018-03-01T18:16:18.506Z,23.75
2018-03-01T18:18:49.584Z,23.25
2018-03-01T18:21:52.696Z,21.75
2018-03-01T18:24:23.929Z,25.50
2018-03-01T18:26:55.571Z,19.75
2018-03-01T18:29:27.116Z,23.25
2018-03-01T18:32:02.046Z,28.00
2018-03-01T18:34:35.911Z,28.50
2018-03-01T18:37:09.967Z,26.50
2018-03-01T18:39:44.181Z,20.00
2018-03-01T18:42:24.605Z,24.00
2018-03-01T18:44:57.525Z,23.00
2018-03-01T18:47:30.618Z,26.00
2018-03-01T18:50:09.597Z,24.00
2018-03-01T18:55:35.670Z,22.00
2018-03-01T18:58:18.248Z,26.50
2018-03-01T19:00:56.256Z,21.00
2018-03-01T19:03:39.119Z,21.50
2018-03-01T19:06:23.184Z,24.00
2018-03-01T19:08:55.045Z,26.00
2018-03-01T19:11:28.340Z,26.00
2018-03-01T19:13:59.947Z,24.00
2018-03-01T19:16:31.100Z,33.00
2018-03-01T19:19:03.233Z,28.50
2018-03-01T19:21:36.717Z,27.50
2018-03-01T19:24:08.749Z,39.00
2018-03-01T19:26:39.800Z,24.50
2018-03-01T19:29:26.839Z,29.00
2018-03-01T19:32:01.708Z,26.00
2018-03-01T19:34:35.330Z,27.00
2018-03-01T19:37:13.635Z,28.00
2018-03-01T19:39:49.146Z,28.00
2018-03-01T19:42:32.281Z,24.50
2018-03-01T19:45:32.634Z,23.00
2018-03-01T19:48:14.548Z,26.00
2018-03-01T19:50:50.660Z,31.00
2018-03-01T19:56:11.247Z,25.00
2018-03-01T19:58:49.089Z,24.00
2018-03-01T20:01:29.760Z,24.00
2018-03-01T20:04:03.030Z,24.00
2018-03-01T20:06:34.952Z,25.50
2018-03-01T20:09:10.215Z,24.00
2018-03-01T20:11:43.133Z,25.00
2018-03-01T20:14:17.351Z,24.00
2018-03-01T20:16:49.434Z,20.00
2018-03-01T20:19:23.515Z,25.00
2018-03-01T20:21:54.316Z,28.50
2018-03-01T20:24:25.982Z,28.50
2018-03-01T20:26:57.136Z,25.50
2018-03-01T20:29:28.894Z,25.00
2018-03-01T20:32:01.714Z,27.50
2018-03-01T20:34:34.664Z,24.00
2018-03-01T20:37:06.594Z,24.50
2018-03-01T20:39:37.921Z,22.00
2018-03-01T20:42:09.503Z,27.50
2018-03-01T20:44:41.185Z,26.50
2018-03-01T20:47:14.238Z,29.50
2018-03-01T20:49:52.525Z,26.00
2018-03-01T20:52:25.684Z,20.00
2018-03-01T20:57:55.735Z,24.00
2018-03-01T21:00:29.686Z,27.50
2018-03-01T21:03:01.957Z,26.50
2018-03-01T21:05:34.051Z,29.00
2018-03-01T21:08:07.479Z,25.00
2018-03-01T21:10:38.575Z,27.50
2018-03-01T21:13:10.731Z,28.00
2018-03-01T21:15:43.527Z,25.50
2018-03-01T21:18:15.027Z,26.50
2018-03-01T21:20:51.508Z,26.00
2018-03-01T21:23:28.981Z,24.50
2018-03-01T21:25:59.954Z,24.00
2018-03-01T21:28:34.904Z,26.50
2018-03-01T21:31:19.733Z,23.50
2018-03-01T21:33:56.785Z,23.50
2018-03-01T21:36:27.916Z,22.00
2018-03-01T21:38:58.620Z,28.00
2018-03-01T21:41:29.948Z,24.50
2018-03-01T21:44:01.684Z,24.00
2018-03-01T21:46:45.266Z,21.00
2018-03-01T21:49:16.268Z,25.50
2018-03-01T21:51:49.325Z,24.00
2018-03-01T21:54:23.187Z,23.50
2018-03-01T21:56:55.732Z,26.50
2018-03-01T21:59:32.306Z,22.50
2018-03-01T22:02:03.951Z,27.00
2018-03-01T22:04:35.510Z,20.00
2018-03-01T22:07:11.258Z,26.50
2018-03-01T22:09:56.842Z,29.50
2018-03-01T22:12:28.279Z,27.00
2018-03-01T22:15:05.031Z,23.00
2018-03-01T22:20:23.995Z,26.00
2018-03-01T22:24:10.631Z,27.50
2018-03-01T22:26:43.035Z,24.00
2018-03-01T22:29:19.210Z,25.00
2018-03-01T22:31:53.666Z,22.00
2018-03-01T22:34:26.205Z,26.00
2018-03-01T22:37:02.415Z,26.50
2018-03-01T22:39:41.437Z,24.50
2018-03-01T22:42:14.803Z,26.00
2018-03-01T22:44:49.040Z,26.00
2018-03-01T22:47:30.563Z,22.50
2018-03-01T22:50:02.454Z,26.00
2018-03-01T22:52:34.352Z,28.00
2018-03-01T22:55:08.238Z,25.50
2018-03-01T22:57:45.004Z,27.00
2018-03-01T23:00:47.052Z,24.50
2018-03-01T23:03:51.331Z,26.50
2018-03-01T23:06:23.241Z,29.50
2018-03-01T23:08:55.424Z,25.50
2018-03-01T23:11:28.750Z,29.00
2018-03-01T23:14:00.294Z,26.00
2018-03-01T23:16:33.767Z,27.00
2018-03-01T23:19:06.417Z,28.00
2018-03-01T23:21:38.367Z,26.50
2018-03-01T23:24:09.706Z,28.00
2018-03-01T23:26:40.711Z,30.50
2018-03-01T23:29:13.188Z,25.50
2018-03-01T23:31:45.418Z,29.50
2018-03-01T23:34:17.243Z,26.00
2018-03-01T23:36:50.451Z,24.00
2018-03-01T23:39:34.085Z,27.50
2018-03-01T23:42:07.701Z,27.50
2018-03-01T23:44:43.029Z,25.00
2018-03-01T23:47:23.312Z,26.00
2018-03-01T23:49:59.166Z,22.50
2018-03-01T23:55:09.633Z,27.00
2018-03-01T23:57:40.527Z,24.00
